createdAt,value
2022-12-31T00:00:11.544Z,99.13
2022-12-31T00:02:39.390Z,98.87
2022-12-31T00:05:08.251Z,98.63
2022-12-31T00:10:03.444Z,100.00
2022-12-31T00:12:32.498Z,100.00
2022-12-31T00:15:00.270Z,100.00
2022-12-31T00:17:28.052Z,100.00
2022-12-31T00:19:55.779Z,99.43
2022-12-31T00:22:23.476Z,100.00
2022-12-31T00:24:51.179Z,98.95
2022-12-31T00:27:19.007Z,98.52
2022-12-31T00:29:48.076Z,97.92
2022-12-31T00:32:15.782Z,98.95
2022-12-31T00:34:43.545Z,100.00
2022-12-31T00:37:11.222Z,99.57
2022-12-31T00:39:38.961Z,97.51
2022-12-31T00:42:06.795Z,98.53
2022-12-31T00:44:34.503Z,98.51
2022-12-31T00:47:03.626Z,97.71
2022-12-31T00:49:31.446Z,100.00
2022-12-31T00:51:59.237Z,99.69
2022-12-31T00:54:27.053Z,97.76
2022-12-31T00:56:54.798Z,97.81
2022-12-31T00:59:22.730Z,96.91
2022-12-31T01:01:51.076Z,97.04
2022-12-31T01:04:21.844Z,96.25
2022-12-31T01:06:49.671Z,97.09
2022-12-31T01:09:18.463Z,97.96
2022-12-31T01:11:46.395Z,97.80
2022-12-31T01:14:16.335Z,98.58
2022-12-31T01:16:45.887Z,96.59
2022-12-31T01:19:17.129Z,97.98
2022-12-31T01:21:47.517Z,96.36
2022-12-31T01:24:15.765Z,98.09
2022-12-31T01:26:43.845Z,97.51
2022-12-31T01:29:12.002Z,97.09
2022-12-31T01:31:41.104Z,97.06
2022-12-31T01:34:09.126Z,97.13
2022-12-31T01:36:38.495Z,96.89
2022-12-31T01:39:09.421Z,95.43
2022-12-31T01:41:39.853Z,97.30
2022-12-31T01:44:40.745Z,96.68
2022-12-31T01:47:15.030Z,97.19
2022-12-31T01:49:45.830Z,96.71
2022-12-31T01:52:18.710Z,96.22
2022-12-31T01:54:53.067Z,97.45
2022-12-31T01:57:22.024Z,96.68
2022-12-31T01:59:49.765Z,96.31
2022-12-31T02:02:18.189Z,93.66
2022-12-31T02:04:46.360Z,97.48
2022-12-31T02:07:14.150Z,96.36
2022-12-31T02:09:43.690Z,96.89
2022-12-31T02:12:13.101Z,97.60
2022-12-31T02:14:45.274Z,97.79
2022-12-31T02:17:23.527Z,99.09
2022-12-31T02:20:32.184Z,99.39
2022-12-31T02:23:42.958Z,100.00
2022-12-31T02:26:44.784Z,100.00
2022-12-31T02:29:58.796Z,100.00
2022-12-31T02:32:37.383Z,100.00
2022-12-31T02:35:10.946Z,100.00
2022-12-31T02:37:40.653Z,100.00
2022-12-31T02:40:12.097Z,100.00
2022-12-31T02:42:39.775Z,100.00
2022-12-31T02:45:09.853Z,100.00
2022-12-31T02:47:51.182Z,100.00
2022-12-31T02:50:29.459Z,100.00
2022-12-31T02:53:14.234Z,100.00
2022-12-31T02:55:50.309Z,99.32
2022-12-31T02:58:43.980Z,100.00
2022-12-31T03:01:30.231Z,99.88
2022-12-31T03:04:23.765Z,100.00
2022-12-31T03:06:52.192Z,98.88
2022-12-31T03:09:19.924Z,98.17
2022-12-31T03:12:05.657Z,99.42
2022-12-31T03:14:33.294Z,98.05
2022-12-31T03:17:00.945Z,97.24
2022-12-31T03:19:47.655Z,97.31
2022-12-31T03:22:31.048Z,96.67
2022-12-31T03:25:19.289Z,98.01
2022-12-31T03:27:48.132Z,97.22
2022-12-31T03:30:18.825Z,97.59
2022-12-31T03:32:48.527Z,96.66
2022-12-31T03:35:20.271Z,97.62
2022-12-31T03:37:49.360Z,97.29
2022-12-31T03:40:18.308Z,98.66
2022-12-31T03:42:46.251Z,100.00
2022-12-31T03:45:14.976Z,100.00
2022-12-31T03:47:43.300Z,100.00
2022-12-31T03:50:13.388Z,100.00
2022-12-31T03:52:42.665Z,100.00
2022-12-31T03:55:11.345Z,100.00
2022-12-31T03:57:39.396Z,100.00
2022-12-31T04:00:10.708Z,100.00
2022-12-31T04:02:38.669Z,100.00
2022-12-31T04:05:07.479Z,100.00
2022-12-31T04:07:35.343Z,100.00
2022-12-31T04:10:05.557Z,100.00
2022-12-31T04:12:33.753Z,100.00
2022-12-31T04:15:01.917Z,100.00
2022-12-31T04:17:29.722Z,100.00
2022-12-31T04:19:57.503Z,100.00
2022-12-31T04:22:25.258Z,100.00
2022-12-31T04:24:53.055Z,100.00
2022-12-31T04:27:22.298Z,100.00
2022-12-31T04:29:49.982Z,100.00
2022-12-31T04:32:17.713Z,100.00
2022-12-31T04:34:45.441Z,100.00
2022-12-31T04:37:13.147Z,100.00
2022-12-31T04:39:40.888Z,100.00
2022-12-31T04:42:08.539Z,100.00
2022-12-31T04:44:37.613Z,100.00
2022-12-31T04:47:05.367Z,100.00
2022-12-31T04:49:33.021Z,100.00
2022-12-31T04:52:00.697Z,100.00
2022-12-31T04:54:28.439Z,100.00
2022-12-31T04:56:56.149Z,100.00
2022-12-31T04:59:23.834Z,100.00
2022-12-31T05:01:53.038Z,100.00
2022-12-31T05:04:20.946Z,100.00
2022-12-31T05:06:48.645Z,100.00
2022-12-31T05:09:16.413Z,100.00
2022-12-31T05:11:44.186Z,100.00
2022-12-31T05:14:12.092Z,100.00
2022-12-31T05:16:39.970Z,100.00
2022-12-31T05:19:09.635Z,100.00
2022-12-31T05:21:37.659Z,100.00
2022-12-31T05:24:05.900Z,100.00
2022-12-31T05:26:33.661Z,100.00
2022-12-31T05:29:01.497Z,100.00
2022-12-31T05:31:29.285Z,100.00
2022-12-31T05:33:57.343Z,100.00
2022-12-31T05:36:26.696Z,100.00
2022-12-31T05:38:54.447Z,100.00
2022-12-31T05:41:22.212Z,100.00
2022-12-31T05:43:51.413Z,100.00
2022-12-31T05:46:19.243Z,100.00
2022-12-31T05:48:47.024Z,100.00
2022-12-31T05:51:14.779Z,100.00
2022-12-31T05:53:44.029Z,100.00
2022-12-31T05:56:11.727Z,100.00
2022-12-31T05:58:39.476Z,100.00
2022-12-31T06:01:07.230Z,100.00
2022-12-31T06:03:34.959Z,100.00
2022-12-31T06:06:02.691Z,100.00
2022-12-31T06:08:30.373Z,100.00
2022-12-31T06:10:59.405Z,100.00
2022-12-31T06:13:27.124Z,100.00
2022-12-31T06:15:54.903Z,99.65
2022-12-31T06:18:22.780Z,100.00
2022-12-31T06:20:50.550Z,100.00
2022-12-31T06:23:18.293Z,100.00
2022-12-31T06:25:46.034Z,100.00
2022-12-31T06:28:20.151Z,100.00
2022-12-31T06:30:48.850Z,100.00
2022-12-31T06:33:16.575Z,100.00
2022-12-31T06:35:44.315Z,100.00
2022-12-31T06:38:12.012Z,100.00
2022-12-31T06:40:39.728Z,100.00
2022-12-31T06:43:07.498Z,100.00
2022-12-31T06:45:36.630Z,100.00
2022-12-31T06:48:04.666Z,100.00
2022-12-31T06:50:32.574Z,100.00
2022-12-31T06:53:00.566Z,100.00
2022-12-31T06:55:29.078Z,100.00
2022-12-31T06:57:57.611Z,100.00
2022-12-31T07:00:25.682Z,100.00
2022-12-31T07:03:17.977Z,100.00
2022-12-31T07:05:48.147Z,100.00
2022-12-31T07:08:38.020Z,100.00
2022-12-31T07:11:15.337Z,100.00
2022-12-31T07:14:04.675Z,100.00
2022-12-31T07:16:54.075Z,100.00
2022-12-31T07:19:34.565Z,100.00
2022-12-31T07:22:04.062Z,100.00
2022-12-31T07:24:32.311Z,100.00
2022-12-31T07:27:11.770Z,100.00
2022-12-31T07:29:57.705Z,100.00
2022-12-31T07:32:40.313Z,100.00
2022-12-31T07:35:19.801Z,100.00
2022-12-31T07:37:53.469Z,100.00
2022-12-31T07:40:27.973Z,100.00
2022-12-31T07:43:08.368Z,100.00
2022-12-31T07:45:42.557Z,100.00
2022-12-31T07:48:22.961Z,100.00
2022-12-31T07:50:54.415Z,100.00
2022-12-31T07:53:23.043Z,100.00
2022-12-31T07:55:55.776Z,100.00
2022-12-31T07:58:30.288Z,100.00
2022-12-31T08:00:59.305Z,100.00
2022-12-31T08:03:46.487Z,100.00
2022-12-31T08:06:23.858Z,100.00
2022-12-31T08:08:58.074Z,100.00
2022-12-31T08:11:31.041Z,100.00
2022-12-31T08:14:02.626Z,100.00
2022-12-31T08:16:31.295Z,100.00
2022-12-31T08:18:59.628Z,100.00
2022-12-31T08:21:42.383Z,100.00
2022-12-31T08:24:20.361Z,100.00
2022-12-31T08:26:58.777Z,100.00
2022-12-31T08:29:36.111Z,100.00
2022-12-31T08:32:13.118Z,100.00
2022-12-31T08:34:53.530Z,100.00
2022-12-31T08:37:31.083Z,100.00
2022-12-31T08:40:11.435Z,100.00
2022-12-31T08:42:49.249Z,100.00
2022-12-31T08:45:26.498Z,100.00
2022-12-31T08:48:02.454Z,100.00
2022-12-31T08:50:31.177Z,100.00
2022-12-31T08:53:01.348Z,100.00
2022-12-31T08:55:29.794Z,99.09
2022-12-31T08:58:10.963Z,97.44
2022-12-31T09:00:39.959Z,98.65
2022-12-31T09:03:23.560Z,99.59
2022-12-31T09:05:59.305Z,100.00
2022-12-31T09:08:42.623Z,100.00
2022-12-31T09:11:22.551Z,100.00
2022-12-31T09:14:07.685Z,100.00
2022-12-31T09:16:49.706Z,100.00
2022-12-31T09:19:17.507Z,100.00
2022-12-31T09:21:45.918Z,100.00
2022-12-31T09:24:16.740Z,100.00
2022-12-31T09:26:58.291Z,100.00
2022-12-31T09:29:38.785Z,100.00
2022-12-31T09:32:13.844Z,100.00
2022-12-31T09:34:47.802Z,100.00
2022-12-31T09:37:19.233Z,100.00
2022-12-31T09:39:49.419Z,100.00
2022-12-31T09:42:39.826Z,100.00
2022-12-31T09:45:29.583Z,100.00
2022-12-31T09:48:31.726Z,100.00
2022-12-31T09:51:09.823Z,100.00
2022-12-31T09:53:42.321Z,100.00
2022-12-31T09:56:21.554Z,100.00
2022-12-31T09:59:01.232Z,100.00
2022-12-31T10:01:47.910Z,100.00
2022-12-31T10:04:39.832Z,100.00
2022-12-31T10:07:22.233Z,100.00
2022-12-31T10:10:00.839Z,100.00
2022-12-31T10:12:46.609Z,100.00
2022-12-31T10:15:36.516Z,100.00
2022-12-31T10:18:12.884Z,100.00
2022-12-31T10:20:55.978Z,100.00
2022-12-31T10:23:52.282Z,100.00
2022-12-31T10:26:53.387Z,100.00
2022-12-31T10:29:37.395Z,100.00
2022-12-31T10:32:17.197Z,100.00
2022-12-31T10:34:56.921Z,100.00
2022-12-31T10:37:29.914Z,100.00
2022-12-31T10:40:11.592Z,100.00
2022-12-31T10:43:08.064Z,100.00
2022-12-31T10:46:17.643Z,100.00
2022-12-31T10:49:16.293Z,100.00
2022-12-31T10:52:18.535Z,100.00
2022-12-31T10:55:24.851Z,100.00
2022-12-31T10:58:21.475Z,100.00
2022-12-31T11:00:59.835Z,100.00
2022-12-31T11:04:04.670Z,100.00
2022-12-31T11:07:15.319Z,100.00
2022-12-31T11:10:22.440Z,100.00
2022-12-31T11:13:17.238Z,100.00
2022-12-31T11:16:09.136Z,100.00
2022-12-31T11:18:44.837Z,100.00
2022-12-31T11:21:28.297Z,100.00
2022-12-31T11:24:06.865Z,100.00
2022-12-31T11:26:51.329Z,100.00
2022-12-31T11:29:38.374Z,100.00
2022-12-31T11:32:24.952Z,100.00
2022-12-31T11:35:29.376Z,100.00
2022-12-31T11:38:11.062Z,100.00
2022-12-31T11:40:43.021Z,100.00
2022-12-31T11:43:23.469Z,100.00
2022-12-31T11:46:08.274Z,100.00
2022-12-31T11:48:44.579Z,100.00
2022-12-31T11:51:36.847Z,100.00
2022-12-31T11:54:46.453Z,100.00
2022-12-31T11:57:23.435Z,100.00
2022-12-31T11:59:55.534Z,100.00
2022-12-31T12:02:27.827Z,100.00
2022-12-31T12:05:08.294Z,100.00
2022-12-31T12:07:38.304Z,100.00
2022-12-31T12:10:20.420Z,100.00
2022-12-31T12:12:48.127Z,100.00
2022-12-31T12:15:21.273Z,100.00
2022-12-31T12:17:53.872Z,100.00
2022-12-31T12:20:29.139Z,100.00
2022-12-31T12:22:58.879Z,100.00
2022-12-31T12:25:29.069Z,100.00
2022-12-31T12:27:56.785Z,100.00
2022-12-31T12:30:27.416Z,100.00
2022-12-31T12:32:56.810Z,100.00
2022-12-31T12:35:28.606Z,100.00
2022-12-31T12:38:01.013Z,100.00
2022-12-31T12:40:33.839Z,100.00
2022-12-31T12:43:03.438Z,100.00
2022-12-31T12:45:46.377Z,100.00
2022-12-31T12:48:21.803Z,100.00
2022-12-31T12:50:51.064Z,100.00
2022-12-31T12:53:36.954Z,100.00
2022-12-31T12:56:18.735Z,100.00
2022-12-31T12:58:59.750Z,100.00
2022-12-31T13:01:36.701Z,100.00
2022-12-31T13:04:41.697Z,100.00
2022-12-31T13:07:33.673Z,100.00
2022-12-31T13:10:21.857Z,100.00
2022-12-31T13:13:23.354Z,100.00
2022-12-31T13:15:51.904Z,100.00
2022-12-31T13:18:30.979Z,100.00
2022-12-31T13:21:04.378Z,100.00
2022-12-31T13:23:42.658Z,100.00
2022-12-31T13:26:16.217Z,100.00
2022-12-31T13:28:47.748Z,100.00
2022-12-31T13:31:19.105Z,100.00
2022-12-31T13:33:52.382Z,100.00
2022-12-31T13:36:23.204Z,100.00
2022-12-31T13:38:54.032Z,100.00
2022-12-31T13:41:25.972Z,100.00
2022-12-31T13:43:59.537Z,100.00
2022-12-31T13:46:37.840Z,100.00
2022-12-31T13:49:13.880Z,100.00
2022-12-31T13:51:45.518Z,100.00
2022-12-31T13:54:25.702Z,100.00
2022-12-31T13:56:55.124Z,100.00
2022-12-31T13:59:29.314Z,100.00
2022-12-31T14:02:02.948Z,100.00
2022-12-31T14:04:37.312Z,100.00
2022-12-31T14:07:11.678Z,100.00
2022-12-31T14:09:40.754Z,100.00
2022-12-31T14:12:28.162Z,100.00
2022-12-31T14:15:04.091Z,100.00
2022-12-31T14:17:39.152Z,100.00
2022-12-31T14:20:19.258Z,100.00
2022-12-31T14:22:54.930Z,100.00
2022-12-31T14:25:29.831Z,100.00
2022-12-31T14:27:59.269Z,100.00
2022-12-31T14:30:31.782Z,100.00
2022-12-31T14:33:36.262Z,100.00
2022-12-31T14:36:14.144Z,100.00
2022-12-31T14:38:56.029Z,100.00
2022-12-31T14:41:36.511Z,100.00
2022-12-31T14:44:19.187Z,100.00
2022-12-31T14:47:00.101Z,100.00
2022-12-31T14:49:39.745Z,100.00
2022-12-31T14:52:21.497Z,100.00
2022-12-31T14:54:59.389Z,100.00
2022-12-31T14:58:01.417Z,100.00
2022-12-31T15:00:31.173Z,100.00
2022-12-31T15:03:01.102Z,100.00
2022-12-31T15:05:30.722Z,100.00
2022-12-31T15:08:27.794Z,100.00
2022-12-31T15:11:12.668Z,100.00
2022-12-31T15:13:57.822Z,100.00
2022-12-31T15:16:39.817Z,100.00
2022-12-31T15:19:44.225Z,100.00
2022-12-31T15:22:25.954Z,100.00
2022-12-31T15:24:53.939Z,100.00
2022-12-31T15:27:35.081Z,100.00
2022-12-31T15:30:07.071Z,100.00
2022-12-31T15:32:38.114Z,100.00
2022-12-31T15:35:26.680Z,100.00
2022-12-31T15:38:02.220Z,100.00
2022-12-31T15:40:30.766Z,100.00
2022-12-31T15:43:03.906Z,100.00
2022-12-31T15:45:37.990Z,100.00
2022-12-31T15:48:14.848Z,100.00
2022-12-31T15:50:44.296Z,100.00
2022-12-31T15:53:25.793Z,100.00
2022-12-31T15:55:55.687Z,100.00
2022-12-31T15:58:27.820Z,100.00
2022-12-31T16:01:04.625Z,100.00
2022-12-31T16:03:33.229Z,100.00
2022-12-31T16:06:03.424Z,100.00
2022-12-31T16:08:33.288Z,100.00
2022-12-31T16:11:01.823Z,100.00
2022-12-31T16:13:31.429Z,100.00
2022-12-31T16:16:03.973Z,100.00
2022-12-31T16:18:39.295Z,100.00
2022-12-31T16:21:08.071Z,100.00
2022-12-31T16:23:42.135Z,100.00
2022-12-31T16:26:11.945Z,100.00
2022-12-31T16:28:39.824Z,100.00
2022-12-31T16:31:15.989Z,100.00
2022-12-31T16:33:43.704Z,100.00
2022-12-31T16:36:21.621Z,100.00
2022-12-31T16:38:49.950Z,100.00
2022-12-31T16:41:19.756Z,100.00
2022-12-31T16:43:48.844Z,100.00
2022-12-31T16:46:23.027Z,100.00
2022-12-31T16:48:56.451Z,100.00
2022-12-31T16:51:27.116Z,100.00
2022-12-31T16:53:55.523Z,100.00
2022-12-31T16:56:27.486Z,100.00
2022-12-31T16:59:03.009Z,100.00
2022-12-31T17:01:35.456Z,99.60
2022-12-31T17:04:06.062Z,100.00
2022-12-31T17:06:33.903Z,100.00
2022-12-31T17:09:14.748Z,100.00
2022-12-31T17:11:50.417Z,100.00
2022-12-31T17:14:22.977Z,100.00
2022-12-31T17:17:02.835Z,100.00
2022-12-31T17:19:38.777Z,100.00
2022-12-31T17:22:11.278Z,100.00
2022-12-31T17:24:40.241Z,100.00
2022-12-31T17:27:10.411Z,100.00
2022-12-31T17:29:38.320Z,100.00
2022-12-31T17:32:26.705Z,100.00
2022-12-31T17:34:54.757Z,100.00
2022-12-31T17:37:27.052Z,100.00
2022-12-31T17:40:17.029Z,100.00
2022-12-31T17:42:47.510Z,100.00
2022-12-31T17:45:20.939Z,100.00
2022-12-31T17:47:53.892Z,100.00
2022-12-31T17:50:23.734Z,100.00
2022-12-31T17:52:53.892Z,100.00
2022-12-31T17:55:21.565Z,100.00
2022-12-31T17:57:53.609Z,100.00
2022-12-31T18:00:24.251Z,100.00
2022-12-31T18:02:53.913Z,100.00
2022-12-31T18:05:23.007Z,100.00
2022-12-31T18:07:51.758Z,100.00
2022-12-31T18:10:21.881Z,100.00
2022-12-31T18:12:51.394Z,100.00
2022-12-31T18:15:25.133Z,100.00
2022-12-31T18:17:54.214Z,100.00
2022-12-31T18:20:22.001Z,100.00
2022-12-31T18:22:49.853Z,100.00
2022-12-31T18:25:20.733Z,100.00
2022-12-31T18:27:49.274Z,100.00
2022-12-31T18:30:17.743Z,100.00
2022-12-31T18:32:46.393Z,100.00
2022-12-31T18:35:48.637Z,100.00
2022-12-31T18:38:07.997Z,100.00
2022-12-31T18:40:35.853Z,100.00
2022-12-31T18:43:05.227Z,100.00
2022-12-31T18:45:33.165Z,100.00
2022-12-31T18:48:01.024Z,100.00
2022-12-31T18:50:30.184Z,100.00
2022-12-31T18:52:57.858Z,100.00
2022-12-31T18:55:33.202Z,100.00
2022-12-31T18:58:00.954Z,100.00
2022-12-31T19:00:28.680Z,100.00
2022-12-31T19:02:56.455Z,100.00
2022-12-31T19:05:26.813Z,100.00
2022-12-31T19:07:56.445Z,100.00
2022-12-31T19:10:24.666Z,99.88
2022-12-31T19:12:52.806Z,99.61
2022-12-31T19:15:30.255Z,100.00
2022-12-31T19:17:58.277Z,98.74
2022-12-31T19:20:26.326Z,98.01
2022-12-31T19:22:55.832Z,98.00
2022-12-31T19:25:25.796Z,98.09
2022-12-31T19:27:54.247Z,98.68
2022-12-31T19:30:25.785Z,99.81
2022-12-31T19:32:54.296Z,99.73
2022-12-31T19:35:23.155Z,98.84
2022-12-31T19:37:52.858Z,99.53
2022-12-31T19:40:25.190Z,99.17
2022-12-31T19:42:54.897Z,99.28
2022-12-31T19:45:24.437Z,99.12
2022-12-31T19:47:52.994Z,98.61
2022-12-31T19:50:22.989Z,98.26
2022-12-31T19:52:52.670Z,96.42
2022-12-31T19:55:23.226Z,98.85
2022-12-31T19:57:50.961Z,97.07
2022-12-31T20:00:20.788Z,96.75
2022-12-31T20:02:49.444Z,96.54
2022-12-31T20:05:19.443Z,95.63
2022-12-31T20:07:47.407Z,94.08
2022-12-31T20:10:15.660Z,95.33
2022-12-31T20:12:44.934Z,95.38
2022-12-31T20:15:13.007Z,95.19
2022-12-31T20:17:40.710Z,94.21
2022-12-31T20:20:09.306Z,92.21
2022-12-31T20:22:37.135Z,92.66
2022-12-31T20:25:05.364Z,92.63
2022-12-31T20:27:33.511Z,91.89
2022-12-31T20:30:02.648Z,91.94
2022-12-31T20:32:30.465Z,90.48
2022-12-31T20:34:58.389Z,91.99
2022-12-31T20:37:26.118Z,92.51
2022-12-31T20:39:53.797Z,91.39
2022-12-31T20:42:21.543Z,90.90
2022-12-31T20:44:49.239Z,91.43
2022-12-31T20:47:18.279Z,90.62
2022-12-31T20:50:10.447Z,91.59
2022-12-31T20:52:33.725Z,90.47
2022-12-31T20:55:01.399Z,89.82
2022-12-31T20:57:33.587Z,89.32
2022-12-31T21:00:01.896Z,88.12
2022-12-31T21:02:41.654Z,88.95
2022-12-31T21:05:11.202Z,88.72
2022-12-31T21:07:39.104Z,87.55
2022-12-31T21:10:07.620Z,87.55
2022-12-31T21:12:43.557Z,87.61
2022-12-31T21:15:12.255Z,86.22
2022-12-31T21:17:41.568Z,86.74
2022-12-31T21:20:10.353Z,86.95
2022-12-31T21:22:38.190Z,87.18
2022-12-31T21:25:06.604Z,86.63
2022-12-31T21:27:34.333Z,85.33
2022-12-31T21:30:18.117Z,84.45
2022-12-31T21:32:48.031Z,85.01
2022-12-31T21:38:04.304Z,83.88
2022-12-31T21:40:32.398Z,83.30
2022-12-31T21:43:00.149Z,82.49
2022-12-31T21:45:27.938Z,82.54
2022-12-31T21:48:17.084Z,81.54
2022-12-31T21:50:46.008Z,81.58
2022-12-31T21:53:16.537Z,81.59
2022-12-31T21:56:04.889Z,80.84
2022-12-31T21:58:32.707Z,80.94
2022-12-31T22:01:18.489Z,80.93
2022-12-31T22:03:47.707Z,81.16
2022-12-31T22:06:20.652Z,79.95
2022-12-31T22:08:50.602Z,79.45
2022-12-31T22:11:20.088Z,80.00
2022-12-31T22:13:48.757Z,78.57
2022-12-31T22:16:17.189Z,78.82
2022-12-31T22:18:45.157Z,78.43
2022-12-31T22:21:19.522Z,77.96
2022-12-31T22:23:49.588Z,77.06
2022-12-31T22:26:18.496Z,76.38
2022-12-31T22:28:47.091Z,76.98
2022-12-31T22:31:16.169Z,76.36
2022-12-31T22:33:44.585Z,75.85
2022-12-31T22:36:15.885Z,75.28
2022-12-31T22:38:47.099Z,74.52
2022-12-31T22:41:17.038Z,75.52
2022-12-31T22:43:46.569Z,75.11
2022-12-31T22:46:19.317Z,73.47
2022-12-31T22:48:47.420Z,74.13
2022-12-31T22:51:17.778Z,74.90
2022-12-31T22:53:46.237Z,75.36
2022-12-31T22:56:16.221Z,73.74
2022-12-31T22:58:44.446Z,74.20
2022-12-31T23:01:17.128Z,73.10
2022-12-31T23:03:45.200Z,72.63
2022-12-31T23:06:13.203Z,73.24
2022-12-31T23:09:02.865Z,72.66
2022-12-31T23:11:29.596Z,72.21
2022-12-31T23:14:14.761Z,71.62
2022-12-31T23:17:00.291Z,72.15
2022-12-31T23:20:05.677Z,72.39
2022-12-31T23:22:50.910Z,72.04
2022-12-31T23:25:20.341Z,71.80
2022-12-31T23:27:47.992Z,71.30
2022-12-31T23:30:15.748Z,71.14
2022-12-31T23:32:43.606Z,70.53
2022-12-31T23:35:11.376Z,71.09
2022-12-31T23:37:39.156Z,71.24
2022-12-31T23:40:08.350Z,71.17
2022-12-31T23:42:37.567Z,71.82
2022-12-31T23:45:05.958Z,71.88
2022-12-31T23:47:33.776Z,70.93
2022-12-31T23:50:01.456Z,70.47
2022-12-31T23:52:29.189Z,70.14
2022-12-31T23:54:56.891Z,70.68
2022-12-31T23:57:24.630Z,70.38
2022-12-31T23:59:53.716Z,70.34
